Terminal Aerodrome Forecast
Issued by NWS

Home | Current Version | Previous Version | Text Only | Print | Product List | Glossary On
Versions: 1 2 3 4 5 6 7 8 9 10 11 12 13
007
FTUS46 KSGX 271135
TAFCRQ
TAF
KCRQ 271135Z 2712/2812 15007KT P6SM BKN012
     FM271700 23007KT P6SM FEW015 SCT250
     FM272100 26010G16KT P6SM SCT250
     FM280200 VRB06KT P6SM FEW010 SCT250
     FM280600 14006KT P6SM BKN015=

USA.gov is the U.S. government's official web portal to all federal, state and local government web resources and services.